sensor_id;sensor_type;location;lat;lon;timestamp;P1;durP1;ratioP1;P2;durP2;ratioP2
50968;SDS011;36982;51.474;7.228;2023-02-23T00:01:30;40.17;;;28.03;;
50968;SDS011;36982;51.474;7.228;2023-02-23T00:03:57;37.17;;;27.63;;
50968;SDS011;36982;51.474;7.228;2023-02-23T00:06:24;37.73;;;27.77;;
50968;SDS011;36982;51.474;7.228;2023-02-23T00:08:50;37.73;;;27.87;;
50968;SDS011;36982;51.474;7.228;2023-02-23T00:11:17;38.97;;;27.17;;
50968;SDS011;36982;51.474;7.228;2023-02-23T00:13:44;39.73;;;27.57;;
50968;SDS011;36982;51.474;7.228;2023-02-23T00:16:15;39.93;;;28.67;;
50968;SDS011;36982;51.474;7.228;2023-02-23T00:18:52;36.97;;;27.93;;
50968;SDS011;36982;51.474;7.228;2023-02-23T00:21:20;41.20;;;29.40;;
50968;SDS011;36982;51.474;7.228;2023-02-23T00:26:15;39.03;;;28.27;;
50968;SDS011;36982;51.474;7.228;2023-02-23T00:28:44;37.70;;;26.53;;
50968;SDS011;36982;51.474;7.228;2023-02-23T00:31:11;36.80;;;26.80;;
50968;SDS011;36982;51.474;7.228;2023-02-23T00:33:37;37.17;;;28.30;;
50968;SDS011;36982;51.474;7.228;2023-02-23T00:36:05;38.80;;;27.43;;
50968;SDS011;36982;51.474;7.228;2023-02-23T00:38:32;35.87;;;27.10;;
50968;SDS011;36982;51.474;7.228;2023-02-23T00:40:59;40.97;;;27.87;;
50968;SDS011;36982;51.474;7.228;2023-02-23T00:43:24;42.00;;;29.57;;
50968;SDS011;36982;51.474;7.228;2023-02-23T00:45:54;40.47;;;28.57;;
50968;SDS011;36982;51.474;7.228;2023-02-23T00:48:20;40.43;;;29.17;;
50968;SDS011;36982;51.474;7.228;2023-02-23T00:50:46;43.83;;;29.77;;
50968;SDS011;36982;51.474;7.228;2023-02-23T00:53:14;44.57;;;30.07;;
50968;SDS011;36982;51.474;7.228;2023-02-23T00:55:40;47.03;;;31.07;;
50968;SDS011;36982;51.474;7.228;2023-02-23T00:58:05;45.37;;;31.47;;
50968;SDS011;36982;51.474;7.228;2023-02-23T01:00:33;42.47;;;30.30;;
50968;SDS011;36982;51.474;7.228;2023-02-23T01:03:06;49.13;;;32.70;;
50968;SDS011;36982;51.474;7.228;2023-02-23T01:05:34;47.93;;;32.07;;
50968;SDS011;36982;51.474;7.228;2023-02-23T01:08:00;48.17;;;31.67;;
50968;SDS011;36982;51.474;7.228;2023-02-23T01:10:26;43.47;;;28.90;;
50968;SDS011;36982;51.474;7.228;2023-02-23T01:12:52;42.73;;;31.10;;
50968;SDS011;36982;51.474;7.228;2023-02-23T01:15:18;46.20;;;31.27;;
50968;SDS011;36982;51.474;7.228;2023-02-23T01:17:45;45.80;;;32.20;;
50968;SDS011;36982;51.474;7.228;2023-02-23T01:20:12;44.23;;;31.03;;
50968;SDS011;36982;51.474;7.228;2023-02-23T01:22:42;41.47;;;29.37;;
50968;SDS011;36982;51.474;7.228;2023-02-23T01:25:12;45.43;;;31.73;;
50968;SDS011;36982;51.474;7.228;2023-02-23T01:27:41;46.17;;;32.03;;
50968;SDS011;36982;51.474;7.228;2023-02-23T01:30:08;44.13;;;30.43;;
50968;SDS011;36982;51.474;7.228;2023-02-23T01:32:36;40.13;;;29.43;;
50968;SDS011;36982;51.474;7.228;2023-02-23T01:35:09;44.10;;;30.23;;
50968;SDS011;36982;51.474;7.228;2023-02-23T01:37:37;49.17;;;31.47;;
50968;SDS011;36982;51.474;7.228;2023-02-23T01:40:05;46.60;;;31.70;;
50968;SDS011;36982;51.474;7.228;2023-02-23T01:42:54;49.40;;;31.57;;
50968;SDS011;36982;51.474;7.228;2023-02-23T01:45:27;45.77;;;31.80;;
50968;SDS011;36982;51.474;7.228;2023-02-23T01:47:56;45.50;;;30.53;;
50968;SDS011;36982;51.474;7.228;2023-02-23T01:50:28;46.87;;;31.33;;
50968;SDS011;36982;51.474;7.228;2023-02-23T01:52:57;45.77;;;30.20;;
50968;SDS011;36982;51.474;7.228;2023-02-23T01:55:23;45.83;;;31.33;;
50968;SDS011;36982;51.474;7.228;2023-02-23T01:57:54;46.60;;;33.20;;
50968;SDS011;36982;51.474;7.228;2023-02-23T02:00:41;46.67;;;32.57;;
50968;SDS011;36982;51.474;7.228;2023-02-23T02:03:11;48.07;;;33.90;;
50968;SDS011;36982;51.474;7.228;2023-02-23T02:05:40;46.90;;;32.53;;
50968;SDS011;36982;51.474;7.228;2023-02-23T02:08:06;49.03;;;32.53;;
50968;SDS011;36982;51.474;7.228;2023-02-23T02:10:34;48.83;;;31.73;;
50968;SDS011;36982;51.474;7.228;2023-02-23T02:13:03;44.13;;;30.13;;
50968;SDS011;36982;51.474;7.228;2023-02-23T02:15:35;44.97;;;32.17;;
50968;SDS011;36982;51.474;7.228;2023-02-23T02:29:04;47.43;;;32.40;;
50968;SDS011;36982;51.474;7.228;2023-02-23T02:35:06;47.97;;;32.70;;
50968;SDS011;36982;51.474;7.228;2023-02-23T02:42:54;45.60;;;32.03;;
50968;SDS011;36982;51.474;7.228;2023-02-23T02:48:16;46.57;;;31.37;;
50968;SDS011;36982;51.474;7.228;2023-02-23T02:56:08;45.17;;;31.43;;
50968;SDS011;36982;51.474;7.228;2023-02-23T02:58:36;46.40;;;32.47;;
50968;SDS011;36982;51.474;7.228;2023-02-23T03:01:11;43.63;;;29.77;;
50968;SDS011;36982;51.474;7.228;2023-02-23T03:03:57;46.57;;;31.77;;
50968;SDS011;36982;51.474;7.228;2023-02-23T03:06:46;46.40;;;31.97;;
50968;SDS011;36982;51.474;7.228;2023-02-23T03:09:41;46.23;;;31.87;;
50968;SDS011;36982;51.474;7.228;2023-02-23T03:12:39;47.83;;;31.73;;
50968;SDS011;36982;51.474;7.228;2023-02-23T03:21:16;48.80;;;33.00;;
50968;SDS011;36982;51.474;7.228;2023-02-23T03:24:14;46.03;;;32.23;;
50968;SDS011;36982;51.474;7.228;2023-02-23T03:30:02;45.07;;;30.90;;
50968;SDS011;36982;51.474;7.228;2023-02-23T03:32:57;46.73;;;32.33;;
50968;SDS011;36982;51.474;7.228;2023-02-23T03:35:56;48.77;;;32.73;;
50968;SDS011;36982;51.474;7.228;2023-02-23T03:42:23;48.10;;;33.93;;
50968;SDS011;36982;51.474;7.228;2023-02-23T03:45:13;46.77;;;32.63;;
50968;SDS011;36982;51.474;7.228;2023-02-23T03:48:02;46.53;;;32.13;;
50968;SDS011;36982;51.474;7.228;2023-02-23T03:50:49;48.93;;;32.23;;
50968;SDS011;36982;51.474;7.228;2023-02-23T03:54:00;51.80;;;33.93;;
50968;SDS011;36982;51.474;7.228;2023-02-23T03:56:46;51.60;;;33.53;;
50968;SDS011;36982;51.474;7.228;2023-02-23T03:59:37;50.90;;;34.07;;
50968;SDS011;36982;51.474;7.228;2023-02-23T04:02:26;52.73;;;34.20;;
50968;SDS011;36982;51.474;7.228;2023-02-23T04:05:12;56.00;;;34.90;;
50968;SDS011;36982;51.474;7.228;2023-02-23T04:08:01;54.43;;;35.10;;
50968;SDS011;36982;51.474;7.228;2023-02-23T04:10:49;57.23;;;35.70;;
50968;SDS011;36982;51.474;7.228;2023-02-23T04:13:39;59.83;;;35.47;;
50968;SDS011;36982;51.474;7.228;2023-02-23T04:16:10;56.37;;;36.17;;
50968;SDS011;36982;51.474;7.228;2023-02-23T04:18:36;59.77;;;35.13;;
50968;SDS011;36982;51.474;7.228;2023-02-23T04:21:04;61.13;;;36.47;;
50968;SDS011;36982;51.474;7.228;2023-02-23T04:23:31;58.83;;;36.93;;
50968;SDS011;36982;51.474;7.228;2023-02-23T04:25:57;61.30;;;37.43;;
50968;SDS011;36982;51.474;7.228;2023-02-23T04:28:23;59.17;;;35.63;;
50968;SDS011;36982;51.474;7.228;2023-02-23T04:30:50;59.03;;;35.57;;
50968;SDS011;36982;51.474;7.228;2023-02-23T04:33:16;60.63;;;36.07;;
50968;SDS011;36982;51.474;7.228;2023-02-23T04:35:43;60.20;;;36.37;;
50968;SDS011;36982;51.474;7.228;2023-02-23T04:38:08;60.63;;;36.93;;
50968;SDS011;36982;51.474;7.228;2023-02-23T04:40:34;62.63;;;36.30;;
50968;SDS011;36982;51.474;7.228;2023-02-23T04:43:00;57.50;;;35.07;;
50968;SDS011;36982;51.474;7.228;2023-02-23T04:45:26;60.57;;;36.50;;
50968;SDS011;36982;51.474;7.228;2023-02-23T04:47:52;61.00;;;35.50;;
50968;SDS011;36982;51.474;7.228;2023-02-23T04:50:18;55.83;;;34.67;;
50968;SDS011;36982;51.474;7.228;2023-02-23T04:52:44;56.03;;;33.07;;
50968;SDS011;36982;51.474;7.228;2023-02-23T04:55:17;55.70;;;34.27;;
50968;SDS011;36982;51.474;7.228;2023-02-23T04:57:45;58.20;;;34.77;;
50968;SDS011;36982;51.474;7.228;2023-02-23T05:00:11;61.53;;;36.30;;
50968;SDS011;36982;51.474;7.228;2023-02-23T05:02:38;58.93;;;35.93;;
50968;SDS011;36982;51.474;7.228;2023-02-23T05:05:04;61.70;;;36.13;;
50968;SDS011;36982;51.474;7.228;2023-02-23T05:07:31;63.33;;;35.53;;
50968;SDS011;36982;51.474;7.228;2023-02-23T05:09:57;61.73;;;34.47;;
50968;SDS011;36982;51.474;7.228;2023-02-23T05:12:22;58.27;;;33.03;;
50968;SDS011;36982;51.474;7.228;2023-02-23T05:14:48;58.60;;;34.70;;
50968;SDS011;36982;51.474;7.228;2023-02-23T05:17:13;63.50;;;34.30;;
50968;SDS011;36982;51.474;7.228;2023-02-23T05:19:39;72.00;;;38.27;;
50968;SDS011;36982;51.474;7.228;2023-02-23T05:22:05;81.40;;;41.87;;
50968;SDS011;36982;51.474;7.228;2023-02-23T05:24:31;70.27;;;38.50;;
50968;SDS011;36982;51.474;7.228;2023-02-23T05:26:57;62.07;;;35.17;;
50968;SDS011;36982;51.474;7.228;2023-02-23T05:29:23;62.77;;;34.70;;
50968;SDS011;36982;51.474;7.228;2023-02-23T05:31:48;62.17;;;35.47;;
50968;SDS011;36982;51.474;7.228;2023-02-23T05:34:14;63.40;;;34.03;;
50968;SDS011;36982;51.474;7.228;2023-02-23T05:36:41;60.07;;;34.20;;
50968;SDS011;36982;51.474;7.228;2023-02-23T05:39:07;61.67;;;34.13;;
50968;SDS011;36982;51.474;7.228;2023-02-23T05:41:32;59.90;;;34.53;;
50968;SDS011;36982;51.474;7.228;2023-02-23T05:43:58;62.43;;;33.17;;
50968;SDS011;36982;51.474;7.228;2023-02-23T05:46:24;56.83;;;31.80;;
50968;SDS011;36982;51.474;7.228;2023-02-23T05:48:54;60.43;;;35.00;;
50968;SDS011;36982;51.474;7.228;2023-02-23T05:51:22;61.20;;;33.40;;
50968;SDS011;36982;51.474;7.228;2023-02-23T05:53:49;59.90;;;34.40;;
50968;SDS011;36982;51.474;7.228;2023-02-23T05:56:15;62.10;;;35.37;;
50968;SDS011;36982;51.474;7.228;2023-02-23T05:58:48;59.37;;;33.90;;
50968;SDS011;36982;51.474;7.228;2023-02-23T06:01:15;62.67;;;33.97;;
50968;SDS011;36982;51.474;7.228;2023-02-23T06:03:41;64.33;;;34.73;;
50968;SDS011;36982;51.474;7.228;2023-02-23T06:06:07;64.40;;;34.87;;
50968;SDS011;36982;51.474;7.228;2023-02-23T06:08:33;65.33;;;35.70;;
50968;SDS011;36982;51.474;7.228;2023-02-23T06:10:58;66.47;;;36.17;;
50968;SDS011;36982;51.474;7.228;2023-02-23T06:13:24;69.23;;;36.93;;
50968;SDS011;36982;51.474;7.228;2023-02-23T06:15:50;66.40;;;34.97;;
50968;SDS011;36982;51.474;7.228;2023-02-23T06:18:16;64.97;;;35.03;;
50968;SDS011;36982;51.474;7.228;2023-02-23T06:20:42;66.00;;;35.13;;
50968;SDS011;36982;51.474;7.228;2023-02-23T06:23:07;64.33;;;35.30;;
50968;SDS011;36982;51.474;7.228;2023-02-23T06:25:33;65.07;;;35.57;;
50968;SDS011;36982;51.474;7.228;2023-02-23T06:27:59;71.83;;;37.50;;
50968;SDS011;36982;51.474;7.228;2023-02-23T06:30:24;71.90;;;40.60;;
50968;SDS011;36982;51.474;7.228;2023-02-23T06:32:50;65.00;;;38.00;;
50968;SDS011;36982;51.474;7.228;2023-02-23T06:35:15;70.70;;;39.03;;
50968;SDS011;36982;51.474;7.228;2023-02-23T06:37:41;66.20;;;37.87;;
50968;SDS011;36982;51.474;7.228;2023-02-23T06:40:07;69.70;;;37.57;;
50968;SDS011;36982;51.474;7.228;2023-02-23T06:42:33;67.10;;;38.90;;
50968;SDS011;36982;51.474;7.228;2023-02-23T06:45:00;66.40;;;37.67;;
50968;SDS011;36982;51.474;7.228;2023-02-23T06:47:26;64.50;;;36.80;;
50968;SDS011;36982;51.474;7.228;2023-02-23T06:49:51;69.70;;;39.20;;
50968;SDS011;36982;51.474;7.228;2023-02-23T06:52:17;64.23;;;36.33;;
50968;SDS011;36982;51.474;7.228;2023-02-23T06:54:42;67.70;;;37.03;;
50968;SDS011;36982;51.474;7.228;2023-02-23T06:57:11;66.30;;;38.67;;
50968;SDS011;36982;51.474;7.228;2023-02-23T06:59:36;64.50;;;38.03;;
50968;SDS011;36982;51.474;7.228;2023-02-23T07:02:03;64.87;;;36.97;;
50968;SDS011;36982;51.474;7.228;2023-02-23T07:04:29;64.73;;;37.60;;
50968;SDS011;36982;51.474;7.228;2023-02-23T07:06:55;69.70;;;39.43;;
50968;SDS011;36982;51.474;7.228;2023-02-23T07:09:21;70.90;;;39.23;;
50968;SDS011;36982;51.474;7.228;2023-02-23T07:11:47;69.30;;;39.07;;
50968;SDS011;36982;51.474;7.228;2023-02-23T07:14:12;71.80;;;40.70;;
50968;SDS011;36982;51.474;7.228;2023-02-23T07:16:38;75.37;;;42.30;;
50968;SDS011;36982;51.474;7.228;2023-02-23T07:19:04;73.30;;;40.30;;
50968;SDS011;36982;51.474;7.228;2023-02-23T07:21:30;72.23;;;40.13;;
50968;SDS011;36982;51.474;7.228;2023-02-23T07:23:57;73.40;;;39.97;;
50968;SDS011;36982;51.474;7.228;2023-02-23T07:26:23;75.20;;;41.37;;
50968;SDS011;36982;51.474;7.228;2023-02-23T07:28:49;75.93;;;40.90;;
50968;SDS011;36982;51.474;7.228;2023-02-23T07:31:15;74.47;;;40.50;;
50968;SDS011;36982;51.474;7.228;2023-02-23T07:33:40;73.13;;;39.03;;
50968;SDS011;36982;51.474;7.228;2023-02-23T07:36:06;68.47;;;39.43;;
50968;SDS011;36982;51.474;7.228;2023-02-23T07:38:32;67.50;;;38.77;;
50968;SDS011;36982;51.474;7.228;2023-02-23T07:40:58;75.30;;;40.03;;
50968;SDS011;36982;51.474;7.228;2023-02-23T07:43:24;72.43;;;40.63;;
50968;SDS011;36982;51.474;7.228;2023-02-23T07:45:49;72.90;;;40.53;;
50968;SDS011;36982;51.474;7.228;2023-02-23T07:48:16;68.90;;;38.40;;
50968;SDS011;36982;51.474;7.228;2023-02-23T07:50:42;69.27;;;38.10;;
50968;SDS011;36982;51.474;7.228;2023-02-23T07:53:08;70.10;;;39.00;;
50968;SDS011;36982;51.474;7.228;2023-02-23T07:55:33;69.03;;;39.50;;
50968;SDS011;36982;51.474;7.228;2023-02-23T07:58:02;66.83;;;37.87;;
50968;SDS011;36982;51.474;7.228;2023-02-23T08:00:29;65.50;;;37.10;;
50968;SDS011;36982;51.474;7.228;2023-02-23T08:02:55;63.80;;;36.23;;
50968;SDS011;36982;51.474;7.228;2023-02-23T08:05:21;64.83;;;35.00;;
50968;SDS011;36982;51.474;7.228;2023-02-23T08:07:47;57.37;;;35.03;;
50968;SDS011;36982;51.474;7.228;2023-02-23T08:10:12;63.07;;;35.37;;
50968;SDS011;36982;51.474;7.228;2023-02-23T08:12:38;60.33;;;35.77;;
50968;SDS011;36982;51.474;7.228;2023-02-23T08:15:04;58.87;;;35.07;;
50968;SDS011;36982;51.474;7.228;2023-02-23T08:17:32;61.40;;;34.90;;
50968;SDS011;36982;51.474;7.228;2023-02-23T08:19:58;55.97;;;33.93;;
50968;SDS011;36982;51.474;7.228;2023-02-23T08:22:24;59.67;;;34.27;;
50968;SDS011;36982;51.474;7.228;2023-02-23T08:24:50;53.37;;;32.60;;
50968;SDS011;36982;51.474;7.228;2023-02-23T08:27:16;55.70;;;33.70;;
50968;SDS011;36982;51.474;7.228;2023-02-23T08:29:42;50.23;;;30.20;;
50968;SDS011;36982;51.474;7.228;2023-02-23T08:32:07;47.90;;;29.93;;
50968;SDS011;36982;51.474;7.228;2023-02-23T08:34:36;43.70;;;28.97;;
50968;SDS011;36982;51.474;7.228;2023-02-23T08:37:03;47.33;;;29.43;;
50968;SDS011;36982;51.474;7.228;2023-02-23T08:39:29;49.80;;;29.10;;
50968;SDS011;36982;51.474;7.228;2023-02-23T08:41:54;53.37;;;30.60;;
50968;SDS011;36982;51.474;7.228;2023-02-23T08:44:20;59.03;;;30.43;;
50968;SDS011;36982;51.474;7.228;2023-02-23T08:46:45;58.07;;;32.63;;
50968;SDS011;36982;51.474;7.228;2023-02-23T08:49:11;64.63;;;32.67;;
50968;SDS011;36982;51.474;7.228;2023-02-23T08:51:37;63.90;;;31.67;;
50968;SDS011;36982;51.474;7.228;2023-02-23T08:54:02;65.37;;;33.17;;
50968;SDS011;36982;51.474;7.228;2023-02-23T08:56:28;61.13;;;32.23;;
50968;SDS011;36982;51.474;7.228;2023-02-23T08:58:55;58.13;;;32.20;;
50968;SDS011;36982;51.474;7.228;2023-02-23T09:01:21;63.67;;;32.93;;
50968;SDS011;36982;51.474;7.228;2023-02-23T09:03:47;60.33;;;32.53;;
50968;SDS011;36982;51.474;7.228;2023-02-23T09:06:14;58.13;;;32.50;;
50968;SDS011;36982;51.474;7.228;2023-02-23T09:08:42;59.90;;;33.20;;
50968;SDS011;36982;51.474;7.228;2023-02-23T09:11:07;63.00;;;32.67;;
50968;SDS011;36982;51.474;7.228;2023-02-23T09:13:33;67.60;;;32.80;;
50968;SDS011;36982;51.474;7.228;2023-02-23T09:16:00;58.97;;;32.47;;
50968;SDS011;36982;51.474;7.228;2023-02-23T09:18:27;60.83;;;32.43;;
50968;SDS011;36982;51.474;7.228;2023-02-23T09:20:54;61.47;;;33.93;;
50968;SDS011;36982;51.474;7.228;2023-02-23T09:23:20;64.17;;;34.23;;
50968;SDS011;36982;51.474;7.228;2023-02-23T09:25:48;58.83;;;31.50;;
50968;SDS011;36982;51.474;7.228;2023-02-23T09:28:14;53.27;;;30.73;;
50968;SDS011;36982;51.474;7.228;2023-02-23T09:30:42;59.90;;;33.07;;
50968;SDS011;36982;51.474;7.228;2023-02-23T09:33:09;54.33;;;30.40;;
50968;SDS011;36982;51.474;7.228;2023-02-23T09:35:35;56.23;;;29.63;;
50968;SDS011;36982;51.474;7.228;2023-02-23T09:38:02;56.07;;;31.13;;
50968;SDS011;36982;51.474;7.228;2023-02-23T09:40:34;56.60;;;30.30;;
50968;SDS011;36982;51.474;7.228;2023-02-23T09:46:07;53.20;;;28.13;;
50968;SDS011;36982;51.474;7.228;2023-02-23T09:48:36;52.27;;;28.37;;
50968;SDS011;36982;51.474;7.228;2023-02-23T09:51:01;52.60;;;27.70;;
50968;SDS011;36982;51.474;7.228;2023-02-23T09:53:39;51.40;;;28.13;;
50968;SDS011;36982;51.474;7.228;2023-02-23T09:56:12;53.30;;;28.37;;
50968;SDS011;36982;51.474;7.228;2023-02-23T09:58:44;46.73;;;25.27;;
50968;SDS011;36982;51.474;7.228;2023-02-23T10:06:36;45.07;;;24.53;;
50968;SDS011;36982;51.474;7.228;2023-02-23T10:22:42;40.87;;;23.53;;
50968;SDS011;36982;51.474;7.228;2023-02-23T10:25:13;43.20;;;25.20;;
50968;SDS011;36982;51.474;7.228;2023-02-23T10:27:48;39.43;;;23.37;;
50968;SDS011;36982;51.474;7.228;2023-02-23T10:30:16;38.33;;;24.43;;
50968;SDS011;36982;51.474;7.228;2023-02-23T10:35:54;38.30;;;23.07;;
50968;SDS011;36982;51.474;7.228;2023-02-23T10:38:24;36.40;;;20.90;;
50968;SDS011;36982;51.474;7.228;2023-02-23T10:40:52;38.80;;;23.83;;
50968;SDS011;36982;51.474;7.228;2023-02-23T10:43:19;40.43;;;25.30;;
50968;SDS011;36982;51.474;7.228;2023-02-23T10:45:47;40.07;;;24.77;;
50968;SDS011;36982;51.474;7.228;2023-02-23T10:48:18;42.57;;;26.17;;
50968;SDS011;36982;51.474;7.228;2023-02-23T10:50:47;39.50;;;24.53;;
50968;SDS011;36982;51.474;7.228;2023-02-23T10:53:16;36.50;;;22.67;;
50968;SDS011;36982;51.474;7.228;2023-02-23T10:55:52;38.80;;;23.13;;
50968;SDS011;36982;51.474;7.228;2023-02-23T10:58:27;32.23;;;21.40;;
50968;SDS011;36982;51.474;7.228;2023-02-23T11:01:03;31.53;;;20.37;;
50968;SDS011;36982;51.474;7.228;2023-02-23T11:03:34;41.70;;;23.23;;
50968;SDS011;36982;51.474;7.228;2023-02-23T11:06:12;40.17;;;24.00;;
50968;SDS011;36982;51.474;7.228;2023-02-23T11:08:55;35.93;;;21.07;;
50968;SDS011;36982;51.474;7.228;2023-02-23T11:11:25;38.40;;;21.27;;
50968;SDS011;36982;51.474;7.228;2023-02-23T11:13:52;39.87;;;21.30;;
50968;SDS011;36982;51.474;7.228;2023-02-23T11:16:20;38.27;;;21.33;;
50968;SDS011;36982;51.474;7.228;2023-02-23T11:21:24;37.00;;;21.73;;
50968;SDS011;36982;51.474;7.228;2023-02-23T11:23:59;42.63;;;22.40;;
50968;SDS011;36982;51.474;7.228;2023-02-23T11:26:41;35.13;;;20.03;;
50968;SDS011;36982;51.474;7.228;2023-02-23T11:29:16;34.67;;;19.77;;
50968;SDS011;36982;51.474;7.228;2023-02-23T11:32:08;36.10;;;20.90;;
50968;SDS011;36982;51.474;7.228;2023-02-23T11:34:39;39.10;;;20.67;;
50968;SDS011;36982;51.474;7.228;2023-02-23T11:39:58;47.90;;;23.00;;
50968;SDS011;36982;51.474;7.228;2023-02-23T11:42:29;44.03;;;23.33;;
50968;SDS011;36982;51.474;7.228;2023-02-23T11:47:31;42.37;;;22.77;;
50968;SDS011;36982;51.474;7.228;2023-02-23T11:49:59;44.63;;;22.80;;
50968;SDS011;36982;51.474;7.228;2023-02-23T11:52:25;47.67;;;24.37;;
50968;SDS011;36982;51.474;7.228;2023-02-23T11:54:56;46.53;;;24.60;;
50968;SDS011;36982;51.474;7.228;2023-02-23T11:57:28;46.17;;;24.63;;
50968;SDS011;36982;51.474;7.228;2023-02-23T11:59:56;45.63;;;22.83;;
50968;SDS011;36982;51.474;7.228;2023-02-23T12:02:24;44.90;;;22.57;;
50968;SDS011;36982;51.474;7.228;2023-02-23T12:05:03;44.97;;;24.17;;
50968;SDS011;36982;51.474;7.228;2023-02-23T12:10:25;44.83;;;23.47;;
50968;SDS011;36982;51.474;7.228;2023-02-23T12:15:35;36.33;;;20.90;;
50968;SDS011;36982;51.474;7.228;2023-02-23T12:18:18;40.10;;;21.33;;
50968;SDS011;36982;51.474;7.228;2023-02-23T12:20:56;38.93;;;20.50;;
50968;SDS011;36982;51.474;7.228;2023-02-23T12:23:28;44.43;;;23.23;;
50968;SDS011;36982;51.474;7.228;2023-02-23T12:28:41;32.60;;;18.60;;
50968;SDS011;36982;51.474;7.228;2023-02-23T12:34:26;27.40;;;14.57;;
50968;SDS011;36982;51.474;7.228;2023-02-23T12:39:42;32.67;;;15.33;;
50968;SDS011;36982;51.474;7.228;2023-02-23T12:42:17;25.93;;;13.53;;
50968;SDS011;36982;51.474;7.228;2023-02-23T12:44:55;27.23;;;14.23;;
50968;SDS011;36982;51.474;7.228;2023-02-23T12:50:43;23.23;;;13.00;;
50968;SDS011;36982;51.474;7.228;2023-02-23T12:53:14;27.40;;;13.80;;
50968;SDS011;36982;51.474;7.228;2023-02-23T13:01:11;25.17;;;15.33;;
50968;SDS011;36982;51.474;7.228;2023-02-23T13:04:02;26.87;;;14.87;;
50968;SDS011;36982;51.474;7.228;2023-02-23T13:07:02;25.97;;;14.97;;
50968;SDS011;36982;51.474;7.228;2023-02-23T13:12:21;37.00;;;20.30;;
50968;SDS011;36982;51.474;7.228;2023-02-23T13:20:29;34.77;;;18.60;;
50968;SDS011;36982;51.474;7.228;2023-02-23T13:28:40;31.87;;;16.87;;
50968;SDS011;36982;51.474;7.228;2023-02-23T13:31:27;29.50;;;16.07;;
50968;SDS011;36982;51.474;7.228;2023-02-23T13:33:59;31.53;;;16.73;;
50968;SDS011;36982;51.474;7.228;2023-02-23T13:36:27;29.00;;;16.47;;
50968;SDS011;36982;51.474;7.228;2023-02-23T13:44:02;31.43;;;16.67;;
50968;SDS011;36982;51.474;7.228;2023-02-23T13:46:52;28.63;;;16.33;;
50968;SDS011;36982;51.474;7.228;2023-02-23T13:52:40;27.67;;;14.90;;
50968;SDS011;36982;51.474;7.228;2023-02-23T13:57:52;28.03;;;15.30;;
50968;SDS011;36982;51.474;7.228;2023-02-23T14:00:41;26.30;;;14.93;;
50968;SDS011;36982;51.474;7.228;2023-02-23T14:03:18;28.87;;;15.20;;
50968;SDS011;36982;51.474;7.228;2023-02-23T14:05:51;29.53;;;14.87;;
50968;SDS011;36982;51.474;7.228;2023-02-23T14:08:21;29.90;;;15.30;;
50968;SDS011;36982;51.474;7.228;2023-02-23T14:11:01;27.40;;;14.97;;
50968;SDS011;36982;51.474;7.228;2023-02-23T14:13:32;27.90;;;15.23;;
50968;SDS011;36982;51.474;7.228;2023-02-23T14:16:15;27.17;;;14.53;;
50968;SDS011;36982;51.474;7.228;2023-02-23T14:32:39;24.17;;;13.67;;
50968;SDS011;36982;51.474;7.228;2023-02-23T14:35:34;25.50;;;14.43;;
50968;SDS011;36982;51.474;7.228;2023-02-23T14:38:02;27.20;;;13.90;;
50968;SDS011;36982;51.474;7.228;2023-02-23T14:40:40;25.20;;;14.17;;
50968;SDS011;36982;51.474;7.228;2023-02-23T14:43:30;22.53;;;13.50;;
50968;SDS011;36982;51.474;7.228;2023-02-23T14:46:19;25.97;;;13.70;;
50968;SDS011;36982;51.474;7.228;2023-02-23T14:49:06;24.07;;;13.00;;
50968;SDS011;36982;51.474;7.228;2023-02-23T14:51:37;21.23;;;11.67;;
50968;SDS011;36982;51.474;7.228;2023-02-23T14:54:09;20.83;;;11.60;;
50968;SDS011;36982;51.474;7.228;2023-02-23T14:56:44;23.73;;;12.30;;
50968;SDS011;36982;51.474;7.228;2023-02-23T14:59:21;23.60;;;12.97;;
50968;SDS011;36982;51.474;7.228;2023-02-23T15:01:48;26.17;;;12.70;;
50968;SDS011;36982;51.474;7.228;2023-02-23T15:04:16;22.50;;;12.63;;
50968;SDS011;36982;51.474;7.228;2023-02-23T15:06:51;24.73;;;12.73;;
50968;SDS011;36982;51.474;7.228;2023-02-23T15:09:31;23.90;;;12.80;;
50968;SDS011;36982;51.474;7.228;2023-02-23T15:12:14;24.63;;;12.77;;
50968;SDS011;36982;51.474;7.228;2023-02-23T15:14:46;24.47;;;12.77;;
50968;SDS011;36982;51.474;7.228;2023-02-23T15:17:19;21.77;;;12.17;;
50968;SDS011;36982;51.474;7.228;2023-02-23T15:19:49;23.13;;;12.97;;
50968;SDS011;36982;51.474;7.228;2023-02-23T15:22:25;20.77;;;12.53;;
50968;SDS011;36982;51.474;7.228;2023-02-23T15:24:59;25.27;;;13.17;;
50968;SDS011;36982;51.474;7.228;2023-02-23T15:27:35;23.73;;;12.97;;
50968;SDS011;36982;51.474;7.228;2023-02-23T15:32:47;29.33;;;14.03;;
50968;SDS011;36982;51.474;7.228;2023-02-23T15:35:13;24.63;;;13.10;;
50968;SDS011;36982;51.474;7.228;2023-02-23T15:37:40;27.83;;;13.53;;
50968;SDS011;36982;51.474;7.228;2023-02-23T15:40:12;26.90;;;13.33;;
50968;SDS011;36982;51.474;7.228;2023-02-23T15:42:44;30.07;;;14.07;;
50968;SDS011;36982;51.474;7.228;2023-02-23T15:47:56;29.57;;;13.43;;
50968;SDS011;36982;51.474;7.228;2023-02-23T15:50:28;34.50;;;15.27;;
50968;SDS011;36982;51.474;7.228;2023-02-23T15:53:00;30.17;;;14.53;;
50968;SDS011;36982;51.474;7.228;2023-02-23T15:55:33;31.50;;;14.93;;
50968;SDS011;36982;51.474;7.228;2023-02-23T15:58:20;30.90;;;15.57;;
50968;SDS011;36982;51.474;7.228;2023-02-23T16:00:58;32.97;;;15.27;;
50968;SDS011;36982;51.474;7.228;2023-02-23T16:03:37;32.53;;;15.00;;
50968;SDS011;36982;51.474;7.228;2023-02-23T16:06:21;29.67;;;14.83;;
50968;SDS011;36982;51.474;7.228;2023-02-23T16:09:11;28.30;;;13.83;;
50968;SDS011;36982;51.474;7.228;2023-02-23T16:14:14;33.20;;;15.77;;
50968;SDS011;36982;51.474;7.228;2023-02-23T16:16:41;28.47;;;14.77;;
50968;SDS011;36982;51.474;7.228;2023-02-23T16:19:10;30.03;;;15.63;;
50968;SDS011;36982;51.474;7.228;2023-02-23T16:21:38;29.23;;;15.37;;
50968;SDS011;36982;51.474;7.228;2023-02-23T16:24:08;26.70;;;14.73;;
50968;SDS011;36982;51.474;7.228;2023-02-23T16:26:44;28.00;;;14.77;;
50968;SDS011;36982;51.474;7.228;2023-02-23T16:29:15;27.73;;;14.43;;
50968;SDS011;36982;51.474;7.228;2023-02-23T16:31:52;27.07;;;14.60;;
50968;SDS011;36982;51.474;7.228;2023-02-23T16:34:26;29.83;;;14.07;;
50968;SDS011;36982;51.474;7.228;2023-02-23T16:37:13;27.80;;;14.80;;
50968;SDS011;36982;51.474;7.228;2023-02-23T16:39:41;31.53;;;14.93;;
50968;SDS011;36982;51.474;7.228;2023-02-23T16:42:10;30.30;;;14.87;;
50968;SDS011;36982;51.474;7.228;2023-02-23T16:44:42;29.00;;;14.70;;
50968;SDS011;36982;51.474;7.228;2023-02-23T16:47:11;31.33;;;14.83;;
50968;SDS011;36982;51.474;7.228;2023-02-23T16:50:00;31.30;;;15.20;;
50968;SDS011;36982;51.474;7.228;2023-02-23T16:52:48;31.97;;;15.37;;
50968;SDS011;36982;51.474;7.228;2023-02-23T16:55:16;28.93;;;13.53;;
50968;SDS011;36982;51.474;7.228;2023-02-23T16:57:50;28.13;;;13.63;;
50968;SDS011;36982;51.474;7.228;2023-02-23T17:00:22;27.57;;;13.33;;
50968;SDS011;36982;51.474;7.228;2023-02-23T17:02:50;29.90;;;13.40;;
50968;SDS011;36982;51.474;7.228;2023-02-23T17:05:18;25.87;;;13.50;;
50968;SDS011;36982;51.474;7.228;2023-02-23T17:07:47;27.37;;;12.30;;
50968;SDS011;36982;51.474;7.228;2023-02-23T17:10:18;24.37;;;11.10;;